Flight Track Log - Related Links

Times and Time Zones

All times are in EDT time to prevent confusion due to time zone crossing. See the N180KT flight status page for this flight to view local times or setup timezone preferences in your user account.

Time Position Orientation Groundspeed Altitude Reporting Facility
EDT Latitude Longitude Course Direction KTS MPH feet Rate Location/Type
Fri 12:16:10 PM 34.0167 -84.6333 239° Southwest 111 128 2,200  Level Atlanta TRACON
Fri 12:17:10 PM 34.0000 -84.6667 239° Southwest 122 140 3,300 950 Climbing Atlanta TRACON
Fri 12:18:10 PM 33.9667 -84.6500 157° South 125 144 4,100 632 Climbing Atlanta TRACON
Fri 12:19:04 PM 33.9500 -84.6167 121° Southeast 142 163 4,500 526 Climbing Atlanta TRACON
Fri 12:20:04 PM 33.9167 -84.5833 140° Southeast 136 157 5,100 300 Climbing Atlanta TRACON
Fri 12:21:04 PM 33.9000 -84.5333 112° Southeast 154 177 5,100 -50 Level Atlanta TRACON
Fri 12:22:04 PM 33.8667 -84.5000 140° Southeast 151 174 5,000 -50 Descending Atlanta TRACON
Fri 12:23:04 PM 33.8333 -84.4833 157° South 149 171 5,000 53 Level Atlanta TRACON
Fri 12:23:58 PM 33.8000 -84.4500 140° Southeast 152 175 5,100 53 Climbing Atlanta TRACON
Fri 12:24:58 PM 33.7667 -84.4500 180° South 148 170 5,100 -53 Level Atlanta TRACON
Fri 12:25:52 PM 33.7333 -84.4333 157° South 148 170 5,000 -53 Descending Atlanta TRACON
Fri 12:26:52 PM 33.6833 -84.4167 164° South 147 169 5,000  Level Atlanta TRACON
Fri 12:27:52 PM 33.6500 -84.4000 157° South 156 180 5,000  Level Atlanta TRACON
Fri 12:28:52 PM 33.6000 -84.4000 180° South 153 176 5,000  Level Atlanta TRACON
Fri 12:29:52 PM 33.5667 -84.4000 180° South 146 168 5,000  Level Atlanta TRACON
Fri 12:30:52 PM 33.5167 -84.4000 180° South 145 167 5,000 50 Level Atlanta TRACON
Fri 12:31:52 PM 33.4833 -84.4000 180° South 142 163 5,100 50 Climbing Atlanta TRACON
Fri 12:32:52 PM 33.4500 -84.3833 157° South 147 169 5,100  Level Atlanta TRACON
Fri 12:33:52 PM 33.4000 -84.3667 164° South 147 169 5,100  Level Atlanta TRACON
Fri 12:34:52 PM 33.3667 -84.3667 180° South 144 166 5,100  Level Atlanta TRACON
Fri 12:35:52 PM 33.3333 -84.3500 157° South 146 168 5,100  Level Atlanta TRACON
Fri 12:36:52 PM 33.2833 -84.3333 164° South 145 167 5,100 -50 Level Atlanta TRACON
Fri 12:37:52 PM 33.2500 -84.3167 157° South 149 171 5,000 100 Descending Atlanta TRACON
Fri 12:38:52 PM 33.2167 -84.3000 157° South 146 168 5,300 500 Climbing Atlanta TRACON
Fri 12:39:52 PM 33.1833 -84.2667 140° Southeast 141 162 6,000 700 Climbing Atlanta TRACON
Fri 12:40:52 PM 33.1500 -84.2333 140° Southeast 134 154 6,700 750 Climbing Atlanta TRACON
Fri 12:41:52 PM 33.1333 -84.2000 121° Southeast 131 151 7,500 750 Climbing Atlanta TRACON
Fri 12:42:52 PM 33.1000 -84.1667 140° Southeast 130 150 8,200 619 Climbing Atlanta TRACON
Fri 12:43:58 PM 33.0833 -84.1333 121° Southeast 134 154 8,800 450 Climbing Atlanta TRACON
Fri 12:44:52 PM 33.0500 -84.1000 140° Southeast 145 167 9,100 158 Climbing Atlanta TRACON
Fri 12:45:52 PM 33.0333 -84.0667 121° Southeast 156 180 9,100  Level Atlanta TRACON
Fri 12:46:52 PM 33.0000 -84.0333 140° Southeast 156 180 9,100  Level Atlanta TRACON
Fri 12:47:52 PM 32.9667 -84.0000 140° Southeast 158 182 9,100  Level Atlanta TRACON
Fri 12:48:52 PM 32.9333 -83.9500 128° Southeast 158 182 9,100  Level Atlanta TRACON
Fri 12:49:53 PM 32.9000 -83.9167 140° Southeast 157 181 9,100  Level Atlanta TRACON
Fri 12:50:53 PM 32.8833 -83.8833 121° Southeast 154 177 9,100  Level Atlanta TRACON
Fri 12:51:53 PM 32.8500 -83.8500 140° Southeast 156 180 9,100  Level Atlanta TRACON
Fri 12:52:53 PM 32.8167 -83.8167 140° Southeast 153 176 9,100  Level Atlanta TRACON
Fri 12:53:53 PM 32.7833 -83.7667 128° Southeast 153 176 9,100  Level Atlanta TRACON
Fri 12:54:53 PM 32.7500 -83.7333 140° Southeast 150 173 9,100  Level Atlanta TRACON
Fri 12:55:53 PM 32.7333 -83.7000 121° Southeast 142 163 9,100  Level Atlanta TRACON
Fri 12:56:53 PM 32.7000 -83.6667 140° Southeast 122 140 9,100  Level Atlanta TRACON
Fri 12:57:53 PM 32.6500 -83.6500 164° South 129 148 9,100  Level Atlanta TRACON
Fri 12:58:59 PM 32.6167 -83.6333 157° South 142 163 9,100  Level Atlanta TRACON
Fri 12:59:59 PM 32.5667 -83.6167 164° South 149 171 9,100  Level Atlanta TRACON
Fri 01:00:59 PM 32.5333 -83.6000 157° South 149 171 9,100  Level Atlanta TRACON
Fri 01:01:53 PM 32.5000 -83.6000 180° South 149 171 9,100  Level Atlanta TRACON
Fri 01:02:59 PM 32.4500 -83.5833 164° South 152 175 9,100  Level Atlanta TRACON
Fri 01:03:59 PM 32.4167 -83.5667 157° South 153 176 9,100  Level Atlanta TRACON
Fri 01:04:59 PM 32.3667 -83.5500 164° South 153 176 9,100  Level Atlanta TRACON
Fri 01:05:52 PM 32.3339 -83.5392 164° South 152 175 9,100  Level Jacksonville Center
Fri 01:06:52 PM 32.2964 -83.5292 167° South 152 175 9,100  Level Jacksonville Center
Fri 01:07:52 PM 32.2547 -83.5189 168° South 152 175 9,100  Level Jacksonville Center
Fri 01:08:52 PM 32.2131 -83.5039 163° South 152 175 9,100  Level Jacksonville Center
Fri 01:09:52 PM 32.1819 -83.4719 139° Southeast 145 167 9,100  Level Jacksonville Center
Fri 01:10:52 PM 32.1486 -83.4397 141° Southeast 150 173 9,100  Level Jacksonville Center
Fri 01:11:52 PM 32.1153 -83.4078 141° Southeast 155 178 9,100  Level Jacksonville Center
Fri 01:12:52 PM 32.0822 -83.3756 140° Southeast 155 178 9,100  Level Jacksonville Center
Fri 01:13:52 PM 32.0508 -83.3436 139° Southeast 155 178 9,100  Level Jacksonville Center
Fri 01:14:52 PM 32.0175 -83.3092 139° Southeast 155 178 9,100  Level Jacksonville Center
Fri 01:15:52 PM 31.9844 -83.2747 139° Southeast 160 184 9,100  Level Jacksonville Center
Fri 01:16:52 PM 31.9511 -83.2453 143° Southeast 160 184 9,100  Level Jacksonville Center
Fri 01:17:52 PM 31.9197 -83.2108 137° Southeast 160 184 9,100  Level Jacksonville Center
Fri 01:18:52 PM 31.8864 -83.1814 143° Southeast 160 184 9,100  Level Jacksonville Center
Fri 01:19:52 PM 31.8553 -83.1469 137° Southeast 160 184 9,100  Level Jacksonville Center
Fri 01:20:52 PM 31.8219 -83.1128 139° Southeast 160 184 9,100  Level Jacksonville Center
Fri 01:21:52 PM 31.7886 -83.0808 141° Southeast 160 184 9,100  Level Jacksonville Center
Fri 01:22:52 PM 31.7572 -83.0489 139° Southeast 160 184 9,100  Level Jacksonville Center
Fri 01:23:52 PM 31.7258 -83.0172 139° Southeast 160 184 9,100  Level Jacksonville Center
Fri 01:24:52 PM 31.6947 -82.9853 139° Southeast 160 184 9,100  Level Jacksonville Center
Fri 01:25:52 PM 31.6614 -82.9511 139° Southeast 160 184 9,100  Level Jacksonville Center
Fri 01:26:52 PM 31.6278 -82.9194 141° Southeast 160 184 9,100 -250 Level Jacksonville Center
Fri 01:27:52 PM 31.5944 -82.8853 139° Southeast 160 184 8,600 -500 Descending Jacksonville Center
Fri 01:28:52 PM 31.5589 -82.8536 143° Southeast 160 184 8,100 -250 Descending Jacksonville Center
Fri 01:29:52 PM 31.5256 -82.8169 137° Southeast 160 184 8,100  Level Jacksonville Center
Fri 01:30:52 PM 31.4942 -82.7853 139° Southeast 160 184 8,100  Level Jacksonville Center
Fri 01:31:52 PM 31.4669 -82.7514 133° Southeast 160 184 8,100  Level Jacksonville Center
Fri 01:32:52 PM 31.4356 -82.7172 137° Southeast 155 178 8,100  Level Jacksonville Center
Fri 01:33:52 PM 31.4042 -82.6856 139° Southeast 155 178 8,100  Level Jacksonville Center
Fri 01:34:52 PM 31.3750 -82.6492 133° Southeast 155 178 8,100  Level Jacksonville Center
Fri 01:35:52 PM 31.3478 -82.6225 140° Southeast 149 171 8,100  Level Jacksonville Center
Fri 01:36:52 PM 31.3164 -82.5911 139° Southeast 149 171 8,100  Level Jacksonville Center
Fri 01:37:52 PM 31.2872 -82.5594 137° Southeast 149 171 8,100  Level Jacksonville Center
Fri 01:38:52 PM 31.2619 -82.5256 131° Southeast 149 171 8,100  Level Jacksonville Center
Fri 01:39:52 PM 31.2325 -82.4942 138° Southeast 144 166 8,100  Level Jacksonville Center
Fri 01:40:52 PM 31.2011 -82.4628 139° Southeast 144 166 8,100  Level Jacksonville Center
Fri 01:41:52 PM 31.1719 -82.4314 137° Southeast 144 166 8,100  Level Jacksonville Center
Fri 01:42:15 PM 31.1592 -82.4144 131° Southeast 149 171 8,100  Level Jacksonville Center
Fri 01:42:52 PM 31.1425 -82.3997 143° Southeast 144 166 8,100  Level Jacksonville Center
Fri 01:43:16 PM 31.1300 -82.3806 127° Southeast 147 169 8,100  Level Jacksonville Center
Fri 01:43:52 PM 31.1131 -82.3636 139° Southeast 144 166 8,100  Level Jacksonville Center
Fri 01:44:17 PM 31.1006 -82.3492 135° Southeast 147 169 8,100  Level Jacksonville Center
Fri 01:45:18 PM 31.0669 -82.3153 139° Southeast 148 170 8,100  Level Jacksonville Center
Fri 01:45:52 PM 31.0522 -82.3008 140° Southeast 144 166 8,100  Level Jacksonville Center
Fri 01:46:25 PM 31.0356 -82.2767 129° Southeast 149 171 8,100  Level Jacksonville Center
Fri 01:46:52 PM 31.0228 -82.2672 148° Southeast 144 166 8,100  Level Jacksonville Center
Fri 01:47:26 PM 31.0039 -82.2431 132° Southeast 149 171 8,100  Level Jacksonville Center
Fri 01:47:52 PM 30.9914 -82.2358 154° Southeast 144 166 8,100  Level Jacksonville Center
Fri 01:48:21 PM 30.9767 -82.2142 128° Southeast 149 171 8,100  Level Jacksonville Center
Fri 01:48:52 PM 30.9619 -82.2022 145° Southeast 144 166 8,100  Level Jacksonville Center
Fri 01:49:28 PM 30.9411 -82.1756 132° Southeast 148 170 8,100  Level Jacksonville Center
Fri 01:49:52 PM 30.9325 -82.1661 137° Southeast 144 166 8,100  Level Jacksonville Center
Fri 01:50:29 PM 30.9117 -82.1467 141° Southeast 147 169 8,100  Level Jacksonville Center
Fri 01:50:52 PM 30.9031 -82.1372 137° Southeast 144 166 8,100  Level Jacksonville Center
Fri 01:51:30 PM 30.8822 -82.1131 135° Southeast 145 167 8,100  Level Jacksonville Center
Fri 01:52:19 PM 30.8589 -82.0842 133° Southeast 146 168 8,100 -259 Level Jacksonville Center
Fri 01:53:26 PM 30.8358 -82.0361 119° Southeast 161 185 7,600 -563 Descending Jacksonville Center
Fri 01:54:27 PM 30.8125 -81.9903 121° Southeast 157 181 6,900 -672 Descending Jacksonville Center
Fri 01:55:22 PM 30.7892 -81.9519 125° Southeast 149 171 6,300 -621 Descending Jacksonville Center
Fri 01:56:23 PM 30.7700 -81.9108 118° Southeast 152 175 5,700 -683 Descending Jacksonville Center
Fri 01:57:25 PM 30.7469 -81.8700 123° Southeast 155 178 4,900 -698 Descending Jacksonville Center
Fri 01:58:32 PM 30.7192 -81.8219 124° Southeast 151 174 4,200 -422 Descending Jacksonville Center
Fri 01:59:33 PM 30.6836 -81.7958 148° Southeast 161 185 4,000 -47 Descending Jacksonville Center
Fri 02:00:40 PM 30.6500 -81.7722 149° Southeast 135 155 4,100 49 Climbing Jacksonville Center
Fri 02:01:35 PM 30.6206 -81.7483 145° Southeast 136 157 4,100 -362 Level Jacksonville Center
Fri 02:02:36 PM 30.5889 -81.7197 142° Southeast 143 165 3,400 -738 Descending Jacksonville Center
Fri 02:03:37 PM 30.5489 -81.6936 151° Southeast 158 182 2,600 -639 Descending Jacksonville Center
Fri 02:04:38 PM 30.5175 -81.6653 142° Southeast 144 166 2,100 -246 Descending Jacksonville Center
Fri 02:05:39 PM 30.4878 -81.6367 140° Southeast 131 151 2,100  Level Jacksonville Center
Fri 02:06:46 PM 30.4542 -81.6131 149° Southeast 135 155 2,100 -49 Level Jacksonville Center
Fri 02:07:41 PM 30.4269 -81.5917 146° Southeast 128 147 2,000 -344 Descending Jacksonville Center
Fri 02:08:48 PM 30.3892 -81.5753 159° South 127 146 1,400 -516 Descending Jacksonville Center
Fri 02:09:49 PM 30.3658 -81.5517 139° Southeast 114 131 900 -541 Descending Jacksonville Center
Fri 02:10:50 PM 30.3469 -81.5278 132° Southeast 96 110 300 -590 Descending Jacksonville Center
Fri 02:12:00 PM 30.3363 -81.5144 131° Southeast  Level Estimated
Fri 02:19:00 PM 30.3363 -81.5144 131° Southeast  Level Estimated

Login

Don't have an account? Register now (free) for customized features, flight alerts, and more!